Time,TemperatureF,DewpointF,PressureIn,WindDirection,WindDirectionDegrees,WindSpeedMPH,WindSpeedGustMPH,Humidity,HourlyPrecipIn,Conditions,Clouds,dailyrainin,SoftwareType,DateUTC
2013-06-14 00:10:00,77.0,74.0,29.96,SSE,160,0.0,0.0,90,0.00,,,0.00,weatherlink.com 1.10,2013-06-14 05:10:00,
2013-06-14 00:25:00,76.8,74.0,29.96,SSE,160,0.0,0.0,90,0.00,,,0.00,weatherlink.com 1.10,2013-06-14 05:25:00,
2013-06-14 00:40:00,76.6,74.0,29.96,SSE,160,0.0,0.0,90,0.00,,,0.00,weatherlink.com 1.10,2013-06-14 05:40:00,
2013-06-14 00:55:00,76.3,73.0,29.96,SSE,160,0.0,0.0,90,0.00,,,0.00,weatherlink.com 1.10,2013-06-14 05:55:00,
2013-06-14 01:10:00,76.0,73.0,29.95,SSE,160,0.0,0.0,91,0.00,,,0.00,weatherlink.com 1.10,2013-06-14 06:10:00,
2013-06-14 01:25:00,75.6,73.0,29.96,SSE,160,0.0,0.0,91,0.00,,,0.00,weatherlink.com 1.10,2013-06-14 06:25:00,
2013-06-14 01:40:00,75.7,73.0,29.96,SSE,160,0.0,0.0,92,0.00,,,0.00,weatherlink.com 1.10,2013-06-14 06:40:00,
2013-06-14 01:55:00,75.6,73.0,29.95,SSE,160,0.0,0.0,92,0.00,,,0.00,weatherlink.com 1.10,2013-06-14 06:55:00,
2013-06-14 02:10:00,75.6,73.0,29.95,SSE,160,0.0,0.0,92,0.00,,,0.00,weatherlink.com 1.10,2013-06-14 07:10:00,
2013-06-14 02:25:00,75.4,73.0,29.95,SSE,160,0.0,0.0,92,0.00,,,0.00,weatherlink.com 1.10,2013-06-14 07:25:00,
2013-06-14 02:40:00,75.3,73.0,29.95,SSE,160,0.0,0.0,92,0.00,,,0.00,weatherlink.com 1.10,2013-06-14 07:40:00,
2013-06-14 02:55:00,75.3,73.0,29.95,SSE,160,0.0,0.0,92,0.00,,,0.00,weatherlink.com 1.10,2013-06-14 07:55:00,
2013-06-14 03:10:00,75.4,73.0,29.94,SSE,160,0.0,0.0,92,0.00,,,0.00,weatherlink.com 1.10,2013-06-14 08:10:00,
2013-06-14 03:25:00,75.3,73.0,29.94,SSE,160,0.0,0.0,92,0.00,,,0.00,weatherlink.com 1.10,2013-06-14 08:25:00,
2013-06-14 03:40:00,75.1,73.0,29.95,SSE,160,0.0,0.0,92,0.00,,,0.00,weatherlink.com 1.10,2013-06-14 08:40:00,
2013-06-14 03:55:00,74.7,72.0,29.95,SSE,160,0.0,0.0,91,0.00,,,0.00,weatherlink.com 1.10,2013-06-14 08:55:00,
2013-06-14 04:10:00,74.4,72.0,29.95,SSE,160,0.0,0.0,92,0.00,,,0.00,weatherlink.com 1.10,2013-06-14 09:10:00,
2013-06-14 04:25:00,74.5,72.0,29.95,SSE,160,0.0,0.0,92,0.00,,,0.00,weatherlink.com 1.10,2013-06-14 09:25:00,
2013-06-14 04:40:00,74.2,72.0,29.95,SSE,160,0.0,0.0,92,0.00,,,0.00,weatherlink.com 1.10,2013-06-14 09:40:00,
2013-06-14 04:55:00,74.4,72.0,29.95,SSE,160,0.0,0.0,92,0.00,,,0.00,weatherlink.com 1.10,2013-06-14 09:55:00,
2013-06-14 05:10:00,74.4,72.0,29.95,SSE,160,0.0,0.0,92,0.00,,,0.00,weatherlink.com 1.10,2013-06-14 10:10:00,
2013-06-14 05:25:00,74.3,72.0,29.95,SSE,160,0.0,0.0,92,0.00,,,0.00,weatherlink.com 1.10,2013-06-14 10:25:00,
2013-06-14 05:40:00,74.2,72.0,29.96,SSE,160,0.0,0.0,92,0.00,,,0.00,weatherlink.com 1.10,2013-06-14 10:40:00,
2013-06-14 05:55:00,74.1,72.0,29.96,SSE,160,0.0,0.0,92,0.00,,,0.00,weatherlink.com 1.10,2013-06-14 10:55:00,
2013-06-14 06:10:00,74.1,72.0,29.98,SSE,160,0.0,0.0,92,0.00,,,0.00,weatherlink.com 1.10,2013-06-14 11:10:00,
2013-06-14 06:25:00,74.0,72.0,29.98,SSE,160,0.0,0.0,92,0.00,,,0.00,weatherlink.com 1.10,2013-06-14 11:25:00,
2013-06-14 06:40:00,74.0,72.0,29.99,SSE,160,0.0,0.0,92,0.00,,,0.00,weatherlink.com 1.10,2013-06-14 11:40:00,
2013-06-14 06:55:00,74.1,72.0,29.99,SSE,160,0.0,0.0,92,0.00,,,0.00,weatherlink.com 1.10,2013-06-14 11:55:00,
2013-06-14 07:10:00,74.0,72.0,29.99,SSE,160,0.0,0.0,92,0.00,,,0.00,weatherlink.com 1.10,2013-06-14 12:10:00,
2013-06-14 07:26:00,74.3,72.0,29.99,SSE,160,0.0,0.0,92,0.00,,,0.00,weatherlink.com 1.10,2013-06-14 12:26:00,
2013-06-14 07:41:00,75.0,73.0,29.99,SSE,160,0.0,0.0,93,0.00,,,0.00,weatherlink.com 1.10,2013-06-14 12:41:00,
2013-06-14 07:56:00,75.3,73.0,30.00,SSE,160,0.0,0.0,92,0.00,,,0.00,weatherlink.com 1.10,2013-06-14 12:56:00,
2013-06-14 08:11:00,76.0,73.0,30.00,SSE,160,0.0,0.0,91,0.00,,,0.00,weatherlink.com 1.10,2013-06-14 13:11:00,
2013-06-14 08:26:00,77.8,74.0,30.00,SSE,160,0.0,0.0,87,0.00,,,0.00,weatherlink.com 1.10,2013-06-14 13:26:00,
2013-06-14 08:41:00,80.4,74.0,30.00,SSE,160,0.0,0.0,80,0.00,,,0.00,weatherlink.com 1.10,2013-06-14 13:41:00,
2013-06-14 08:56:00,82.2,74.0,30.00,SSE,160,0.0,0.0,77,0.00,,,0.00,weatherlink.com 1.10,2013-06-14 13:56:00,
2013-06-14 09:11:00,83.9,75.0,29.99,SSE,160,0.0,0.0,75,0.00,,,0.00,weatherlink.com 1.10,2013-06-14 14:11:00,
2013-06-14 09:26:00,84.6,74.0,29.99,SSE,163,0.0,0.0,71,0.00,,,0.00,weatherlink.com 1.10,2013-06-14 14:26:00,
2013-06-14 09:41:00,85.3,74.0,29.99,South,175,0.0,0.0,69,0.00,,,0.00,weatherlink.com 1.10,2013-06-14 14:41:00,
2013-06-14 09:56:00,86.6,74.0,29.99,SSW,194,0.0,4.0,66,0.00,,,0.00,weatherlink.com 1.10,2013-06-14 14:56:00,
2013-06-14 10:11:00,88.5,74.0,29.99,South,185,1.0,3.0,63,0.00,,,0.00,weatherlink.com 1.10,2013-06-14 15:11:00,
2013-06-14 10:26:00,88.7,75.0,29.99,East,88,1.0,3.0,64,0.00,,,0.00,weatherlink.com 1.10,2013-06-14 15:26:00,
2013-06-14 10:41:00,88.6,75.0,29.99,North,5,1.0,3.0,64,0.00,,,0.00,weatherlink.com 1.10,2013-06-14 15:41:00,
2013-06-14 10:56:00,89.3,75.0,29.99,SSW,192,2.0,4.0,63,0.00,,,0.00,weatherlink.com 1.10,2013-06-14 15:56:00,
2013-06-14 11:11:00,90.6,75.0,29.99,South,171,0.0,2.0,61,0.00,,,0.00,weatherlink.com 1.10,2013-06-14 16:11:00,
2013-06-14 11:26:00,91.7,77.0,29.98,South,169,0.0,2.0,62,0.00,,,0.00,weatherlink.com 1.10,2013-06-14 16:26:00,
2013-06-14 11:41:00,91.9,75.0,29.98,SSW,202,3.0,3.0,58,0.00,,,0.00,weatherlink.com 1.10,2013-06-14 16:41:00,
2013-06-14 11:56:00,92.4,75.0,29.98,SSW,194,0.0,3.0,57,0.00,,,0.00,weatherlink.com 1.10,2013-06-14 16:56:00,
2013-06-14 12:11:00,90.5,75.0,29.99,NNW,328,0.0,4.0,60,0.00,,,0.00,weatherlink.com 1.10,2013-06-14 17:11:00,
2013-06-14 12:26:00,92.5,76.0,29.99,North,355,2.0,3.0,59,0.00,,,0.00,weatherlink.com 1.10,2013-06-14 17:26:00,
2013-06-14 12:41:00,92.5,76.0,29.98,ENE,62,0.0,2.0,59,0.00,,,0.00,weatherlink.com 1.10,2013-06-14 17:41:00,
2013-06-14 12:56:00,90.5,75.0,29.98,ENE,62,0.0,2.0,61,0.00,,,0.00,weatherlink.com 1.10,2013-06-14 17:56:00,
2013-06-14 13:11:00,92.7,77.0,29.98,ENE,62,0.0,2.0,61,0.00,,,0.00,weatherlink.com 1.10,2013-06-14 18:11:00,
2013-06-14 13:26:00,92.9,75.0,29.97,SSE,165,0.0,4.0,57,0.00,,,0.00,weatherlink.com 1.10,2013-06-14 18:26:00,
2013-06-14 13:41:00,92.3,77.0,29.97,NW,318,1.0,3.0,61,0.00,,,0.00,weatherlink.com 1.10,2013-06-14 18:41:00,
2013-06-14 13:56:00,90.5,77.0,29.97,NW,318,0.0,1.0,65,0.00,,,0.00,weatherlink.com 1.10,2013-06-14 18:56:00,
2013-06-14 14:11:00,92.4,76.0,29.96,NW,320,0.0,1.0,59,0.00,,,0.00,weatherlink.com 1.10,2013-06-14 19:11:00,
2013-06-14 14:26:00,94.8,73.0,29.95,SE,127,0.0,4.0,50,0.00,,,0.00,weatherlink.com 1.10,2013-06-14 19:26:00,
2013-06-14 14:41:00,95.3,76.0,29.95,ESE,121,1.0,2.0,53,0.00,,,0.00,weatherlink.com 1.10,2013-06-14 19:41:00,
2013-06-14 14:56:00,95.8,74.0,29.94,SE,129,0.0,3.0,50,0.00,,,0.00,weatherlink.com 1.10,2013-06-14 19:56:00,
2013-06-14 15:12:00,95.8,75.0,29.94,SSE,165,0.0,2.0,52,0.00,,,0.00,weatherlink.com 1.10,2013-06-14 20:12:00,
2013-06-14 15:27:00,93.4,75.0,29.94,ESE,108,0.0,2.0,55,0.00,,,0.00,weatherlink.com 1.10,2013-06-14 20:27:00,
2013-06-14 15:42:00,92.6,78.0,29.93,ESE,108,0.0,2.0,63,0.00,,,0.00,weatherlink.com 1.10,2013-06-14 20:42:00,
2013-06-14 15:57:00,93.6,77.0,29.92,ESE,108,0.0,1.0,58,0.00,,,0.00,weatherlink.com 1.10,2013-06-14 20:57:00,
2013-06-14 16:27:00,93.8,78.0,29.92,ENE,69,0.0,1.0,60,0.00,,,0.00,weatherlink.com 1.10,2013-06-14 21:27:00,
2013-06-14 16:42:00,93.8,77.0,29.92,SE,126,0.0,1.0,59,0.00,,,0.00,weatherlink.com 1.10,2013-06-14 21:42:00,
2013-06-14 16:57:00,93.7,78.0,29.91,SE,126,0.0,1.0,61,0.00,,,0.00,weatherlink.com 1.10,2013-06-14 21:57:00,
2013-06-14 17:12:00,93.9,75.0,29.91,SE,126,0.0,1.0,55,0.00,,,0.00,weatherlink.com 1.10,2013-06-14 22:12:00,
2013-06-14 17:27:00,93.9,74.0,29.91,SE,126,0.0,1.0,53,0.00,,,0.00,weatherlink.com 1.10,2013-06-14 22:27:00,
2013-06-14 17:42:00,93.4,74.0,29.90,ESE,116,0.0,1.0,53,0.00,,,0.00,weatherlink.com 1.10,2013-06-14 22:42:00,
2013-06-14 17:57:00,91.7,78.0,29.90,ESE,116,0.0,0.0,64,0.00,,,0.00,weatherlink.com 1.10,2013-06-14 22:57:00,
2013-06-14 18:12:00,91.4,78.0,29.89,ESE,116,0.0,1.0,64,0.00,,,0.00,weatherlink.com 1.10,2013-06-14 23:12:00,
2013-06-14 18:27:00,91.1,77.0,29.89,ESE,116,0.0,0.0,64,0.00,,,0.00,weatherlink.com 1.10,2013-06-14 23:27:00,
2013-06-14 18:42:00,90.0,79.0,29.89,ESE,116,0.0,0.0,70,0.00,,,0.00,weatherlink.com 1.10,2013-06-14 23:42:00,
2013-06-14 18:57:00,89.2,78.0,29.89,ESE,116,0.0,1.0,70,0.00,,,0.00,weatherlink.com 1.10,2013-06-14 23:57:00,
2013-06-14 19:12:00,88.6,78.0,29.89,ESE,116,0.0,0.0,71,0.00,,,0.00,weatherlink.com 1.10,2013-06-15 00:12:00,
2013-06-14 19:27:00,88.0,78.0,29.89,ESE,116,0.0,0.0,72,0.00,,,0.00,weatherlink.com 1.10,2013-06-15 00:27:00,
2013-06-14 19:42:00,87.4,78.0,29.89,ESE,116,0.0,0.0,73,0.00,,,0.00,weatherlink.com 1.10,2013-06-15 00:42:00,
2013-06-14 19:57:00,86.6,78.0,29.89,ESE,116,0.0,0.0,75,0.00,,,0.00,weatherlink.com 1.10,2013-06-15 00:57:00,
2013-06-14 20:12:00,86.1,78.0,29.91,ESE,116,0.0,0.0,77,0.00,,,0.00,weatherlink.com 1.10,2013-06-15 01:12:00,
2013-06-14 20:27:00,85.5,78.0,29.91,ESE,116,0.0,0.0,79,0.00,,,0.00,weatherlink.com 1.10,2013-06-15 01:27:00,
2013-06-14 20:42:00,85.0,78.0,29.91,ESE,116,0.0,0.0,80,0.00,,,0.00,weatherlink.com 1.10,2013-06-15 01:42:00,
2013-06-14 20:57:00,84.5,79.0,29.92,ESE,116,0.0,0.0,82,0.00,,,0.00,weatherlink.com 1.10,2013-06-15 01:57:00,
2013-06-14 21:12:00,83.6,78.0,29.92,ESE,116,0.0,0.0,82,0.00,,,0.00,weatherlink.com 1.10,2013-06-15 02:12:00,
2013-06-14 21:27:00,82.8,78.0,29.92,ESE,116,0.0,0.0,84,0.00,,,0.00,weatherlink.com 1.10,2013-06-15 02:27:00,
2013-06-14 21:42:00,82.3,77.0,29.92,ESE,116,0.0,0.0,85,0.00,,,0.00,weatherlink.com 1.10,2013-06-15 02:42:00,
2013-06-14 21:57:00,81.8,77.0,29.92,ESE,116,0.0,0.0,86,0.00,,,0.00,weatherlink.com 1.10,2013-06-15 02:57:00,
2013-06-14 22:12:00,81.4,77.0,29.93,ESE,116,0.0,0.0,86,0.00,,,0.00,weatherlink.com 1.10,2013-06-15 03:12:00,
2013-06-14 22:27:00,81.2,77.0,29.93,ESE,116,0.0,0.0,87,0.00,,,0.00,weatherlink.com 1.10,2013-06-15 03:27:00,
2013-06-14 22:42:00,81.0,77.0,29.94,ESE,116,0.0,0.0,87,0.00,,,0.00,weatherlink.com 1.10,2013-06-15 03:42:00,
2013-06-14 22:57:00,81.0,77.0,29.96,East,91,0.0,3.0,88,0.00,,,0.00,weatherlink.com 1.10,2013-06-15 03:57:00,
2013-06-14 23:12:00,81.0,77.0,29.97,East,91,0.0,1.0,87,0.00,,,0.00,weatherlink.com 1.10,2013-06-15 04:12:00,
2013-06-14 23:27:00,81.4,77.0,29.96,NE,36,0.0,2.0,85,0.00,,,0.00,weatherlink.com 1.10,2013-06-15 04:27:00,
2013-06-14 23:42:00,82.6,77.0,29.98,SE,142,3.0,5.0,83,0.00,,,0.00,weatherlink.com 1.10,2013-06-15 04:42:00,
2013-06-14 23:57:00,76.1,70.0,30.01,SE,125,9.0,28.0,82,0.26,,,0.26,weatherlink.com 1.10,2013-06-15 04:57:00,